sensor_id;sensor_type;location;lat;lon;timestamp;P1;durP1;ratioP1;P2;durP2;ratioP2
41468;SDS011;27206;47.032;15.484;2022-07-23T00:00:04;7.60;;;6.18;;
41468;SDS011;27206;47.032;15.484;2022-07-23T00:02:31;9.38;;;6.30;;
41468;SDS011;27206;47.032;15.484;2022-07-23T00:04:56;8.23;;;6.40;;
41468;SDS011;27206;47.032;15.484;2022-07-23T00:07:22;8.13;;;6.03;;
41468;SDS011;27206;47.032;15.484;2022-07-23T00:09:48;8.05;;;6.43;;
41468;SDS011;27206;47.032;15.484;2022-07-23T00:12:13;8.15;;;6.32;;
41468;SDS011;27206;47.032;15.484;2022-07-23T00:14:39;8.35;;;6.22;;
41468;SDS011;27206;47.032;15.484;2022-07-23T00:17:04;8.00;;;6.25;;
41468;SDS011;27206;47.032;15.484;2022-07-23T00:19:30;9.70;;;6.55;;
41468;SDS011;27206;47.032;15.484;2022-07-23T00:21:56;7.85;;;6.10;;
41468;SDS011;27206;47.032;15.484;2022-07-23T00:24:21;7.35;;;6.18;;
41468;SDS011;27206;47.032;15.484;2022-07-23T00:26:47;9.10;;;6.45;;
41468;SDS011;27206;47.032;15.484;2022-07-23T00:29:12;9.35;;;6.53;;
41468;SDS011;27206;47.032;15.484;2022-07-23T00:31:38;9.88;;;6.20;;
41468;SDS011;27206;47.032;15.484;2022-07-23T00:34:04;7.80;;;6.57;;
41468;SDS011;27206;47.032;15.484;2022-07-23T00:36:30;9.05;;;6.70;;
41468;SDS011;27206;47.032;15.484;2022-07-23T00:38:56;8.30;;;6.43;;
41468;SDS011;27206;47.032;15.484;2022-07-23T00:41:22;8.05;;;6.80;;
41468;SDS011;27206;47.032;15.484;2022-07-23T00:43:47;9.70;;;6.70;;
41468;SDS011;27206;47.032;15.484;2022-07-23T00:46:13;9.95;;;7.05;;
41468;SDS011;27206;47.032;15.484;2022-07-23T00:48:44;10.05;;;6.68;;
41468;SDS011;27206;47.032;15.484;2022-07-23T00:51:10;10.55;;;6.95;;
41468;SDS011;27206;47.032;15.484;2022-07-23T00:53:36;7.28;;;5.88;;
41468;SDS011;27206;47.032;15.484;2022-07-23T00:56:01;9.05;;;6.70;;
41468;SDS011;27206;47.032;15.484;2022-07-23T00:58:27;12.88;;;7.10;;
41468;SDS011;27206;47.032;15.484;2022-07-23T01:00:53;8.02;;;6.78;;
41468;SDS011;27206;47.032;15.484;2022-07-23T01:03:18;9.27;;;6.45;;
41468;SDS011;27206;47.032;15.484;2022-07-23T01:05:44;10.25;;;6.88;;
41468;SDS011;27206;47.032;15.484;2022-07-23T01:08:10;9.13;;;6.78;;
41468;SDS011;27206;47.032;15.484;2022-07-23T01:10:36;9.75;;;6.53;;
41468;SDS011;27206;47.032;15.484;2022-07-23T01:15:29;10.40;;;7.10;;
41468;SDS011;27206;47.032;15.484;2022-07-23T01:17:56;9.13;;;7.15;;
41468;SDS011;27206;47.032;15.484;2022-07-23T01:20:22;9.85;;;6.85;;
41468;SDS011;27206;47.032;15.484;2022-07-23T01:22:48;9.07;;;7.03;;
41468;SDS011;27206;47.032;15.484;2022-07-23T01:25:14;10.13;;;7.38;;
41468;SDS011;27206;47.032;15.484;2022-07-23T01:27:39;10.57;;;7.57;;
41468;SDS011;27206;47.032;15.484;2022-07-23T01:30:06;9.25;;;7.18;;
41468;SDS011;27206;47.032;15.484;2022-07-23T01:32:32;8.93;;;7.22;;
41468;SDS011;27206;47.032;15.484;2022-07-23T01:34:57;8.40;;;6.80;;
41468;SDS011;27206;47.032;15.484;2022-07-23T01:37:23;8.25;;;6.80;;
41468;SDS011;27206;47.032;15.484;2022-07-23T01:39:49;10.27;;;7.32;;
41468;SDS011;27206;47.032;15.484;2022-07-23T01:42:14;9.07;;;7.20;;
41468;SDS011;27206;47.032;15.484;2022-07-23T01:44:40;10.32;;;7.30;;
41468;SDS011;27206;47.032;15.484;2022-07-23T01:47:06;9.55;;;7.15;;
41468;SDS011;27206;47.032;15.484;2022-07-23T01:49:31;9.07;;;6.97;;
41468;SDS011;27206;47.032;15.484;2022-07-23T01:51:57;8.57;;;7.32;;
41468;SDS011;27206;47.032;15.484;2022-07-23T01:54:29;9.25;;;7.47;;
41468;SDS011;27206;47.032;15.484;2022-07-23T01:56:56;8.93;;;7.40;;
41468;SDS011;27206;47.032;15.484;2022-07-23T01:59:23;9.55;;;7.38;;
41468;SDS011;27206;47.032;15.484;2022-07-23T02:01:49;10.90;;;7.50;;
41468;SDS011;27206;47.032;15.484;2022-07-23T02:04:19;10.20;;;7.65;;
41468;SDS011;27206;47.032;15.484;2022-07-23T02:06:46;9.65;;;7.20;;
41468;SDS011;27206;47.032;15.484;2022-07-23T02:09:13;9.38;;;7.20;;
41468;SDS011;27206;47.032;15.484;2022-07-23T02:11:38;9.48;;;7.60;;
41468;SDS011;27206;47.032;15.484;2022-07-23T02:14:04;9.45;;;7.55;;
41468;SDS011;27206;47.032;15.484;2022-07-23T02:16:30;8.27;;;6.80;;
41468;SDS011;27206;47.032;15.484;2022-07-23T02:18:55;8.43;;;7.07;;
41468;SDS011;27206;47.032;15.484;2022-07-23T02:21:21;10.23;;;7.63;;
41468;SDS011;27206;47.032;15.484;2022-07-23T02:23:47;10.05;;;6.78;;
41468;SDS011;27206;47.032;15.484;2022-07-23T02:26:12;10.20;;;7.30;;
41468;SDS011;27206;47.032;15.484;2022-07-23T02:28:38;9.70;;;7.28;;
41468;SDS011;27206;47.032;15.484;2022-07-23T02:31:04;9.48;;;6.80;;
41468;SDS011;27206;47.032;15.484;2022-07-23T02:33:30;9.00;;;7.40;;
41468;SDS011;27206;47.032;15.484;2022-07-23T02:35:56;9.57;;;7.60;;
41468;SDS011;27206;47.032;15.484;2022-07-23T02:38:21;9.20;;;7.10;;
41468;SDS011;27206;47.032;15.484;2022-07-23T02:40:47;11.68;;;7.72;;
41468;SDS011;27206;47.032;15.484;2022-07-23T02:43:13;12.02;;;7.20;;
41468;SDS011;27206;47.032;15.484;2022-07-23T02:45:38;10.15;;;7.10;;
41468;SDS011;27206;47.032;15.484;2022-07-23T02:48:04;9.18;;;7.63;;
41468;SDS011;27206;47.032;15.484;2022-07-23T02:50:30;10.60;;;7.28;;
41468;SDS011;27206;47.032;15.484;2022-07-23T02:52:55;9.93;;;7.70;;
41468;SDS011;27206;47.032;15.484;2022-07-23T02:55:21;8.68;;;7.43;;
41468;SDS011;27206;47.032;15.484;2022-07-23T02:57:46;11.63;;;8.30;;
41468;SDS011;27206;47.032;15.484;2022-07-23T03:00:12;8.27;;;7.40;;
41468;SDS011;27206;47.032;15.484;2022-07-23T03:02:38;11.05;;;7.80;;
41468;SDS011;27206;47.032;15.484;2022-07-23T03:05:04;9.98;;;7.28;;
41468;SDS011;27206;47.032;15.484;2022-07-23T03:07:30;9.52;;;7.63;;
41468;SDS011;27206;47.032;15.484;2022-07-23T03:09:56;10.93;;;7.88;;
41468;SDS011;27206;47.032;15.484;2022-07-23T03:12:21;11.55;;;8.18;;
41468;SDS011;27206;47.032;15.484;2022-07-23T03:14:47;9.25;;;7.85;;
41468;SDS011;27206;47.032;15.484;2022-07-23T03:17:13;9.60;;;7.68;;
41468;SDS011;27206;47.032;15.484;2022-07-23T03:19:38;10.45;;;7.88;;
41468;SDS011;27206;47.032;15.484;2022-07-23T03:22:04;8.93;;;7.40;;
41468;SDS011;27206;47.032;15.484;2022-07-23T03:24:30;13.98;;;8.02;;
41468;SDS011;27206;47.032;15.484;2022-07-23T03:27:15;11.43;;;8.07;;
41468;SDS011;27206;47.032;15.484;2022-07-23T03:29:40;10.05;;;7.43;;
41468;SDS011;27206;47.032;15.484;2022-07-23T03:32:06;11.95;;;7.95;;
41468;SDS011;27206;47.032;15.484;2022-07-23T03:34:32;11.25;;;7.72;;
41468;SDS011;27206;47.032;15.484;2022-07-23T03:36:57;10.25;;;7.57;;
41468;SDS011;27206;47.032;15.484;2022-07-23T03:39:23;10.95;;;7.70;;
41468;SDS011;27206;47.032;15.484;2022-07-23T03:41:49;9.32;;;7.53;;
41468;SDS011;27206;47.032;15.484;2022-07-23T03:44:14;10.10;;;7.88;;
41468;SDS011;27206;47.032;15.484;2022-07-23T03:46:40;9.32;;;7.70;;
41468;SDS011;27206;47.032;15.484;2022-07-23T03:49:06;9.52;;;7.70;;
41468;SDS011;27206;47.032;15.484;2022-07-23T03:51:31;11.00;;;8.40;;
41468;SDS011;27206;47.032;15.484;2022-07-23T03:53:57;12.55;;;7.75;;
41468;SDS011;27206;47.032;15.484;2022-07-23T03:56:23;10.18;;;8.07;;
41468;SDS011;27206;47.032;15.484;2022-07-23T03:58:49;9.25;;;7.65;;
41468;SDS011;27206;47.032;15.484;2022-07-23T04:01:15;9.05;;;8.15;;
41468;SDS011;27206;47.032;15.484;2022-07-23T04:03:40;9.65;;;7.95;;
41468;SDS011;27206;47.032;15.484;2022-07-23T04:06:06;9.75;;;7.93;;
41468;SDS011;27206;47.032;15.484;2022-07-23T04:08:32;11.65;;;7.85;;
41468;SDS011;27206;47.032;15.484;2022-07-23T04:10:58;11.10;;;7.72;;
41468;SDS011;27206;47.032;15.484;2022-07-23T04:13:23;11.48;;;8.07;;
41468;SDS011;27206;47.032;15.484;2022-07-23T04:15:49;11.93;;;8.20;;
41468;SDS011;27206;47.032;15.484;2022-07-23T04:18:16;10.63;;;7.78;;
41468;SDS011;27206;47.032;15.484;2022-07-23T04:20:46;10.02;;;7.32;;
41468;SDS011;27206;47.032;15.484;2022-07-23T04:23:12;10.38;;;8.23;;
41468;SDS011;27206;47.032;15.484;2022-07-23T04:25:38;11.60;;;9.20;;
41468;SDS011;27206;47.032;15.484;2022-07-23T04:28:04;12.85;;;8.77;;
41468;SDS011;27206;47.032;15.484;2022-07-23T04:30:29;11.18;;;9.13;;
41468;SDS011;27206;47.032;15.484;2022-07-23T04:32:55;12.40;;;9.88;;
41468;SDS011;27206;47.032;15.484;2022-07-23T04:35:21;13.10;;;9.73;;
41468;SDS011;27206;47.032;15.484;2022-07-23T04:37:46;14.38;;;10.35;;
41468;SDS011;27206;47.032;15.484;2022-07-23T04:40:12;13.32;;;9.80;;
41468;SDS011;27206;47.032;15.484;2022-07-23T04:42:38;13.02;;;10.60;;
41468;SDS011;27206;47.032;15.484;2022-07-23T04:45:05;16.40;;;10.82;;
41468;SDS011;27206;47.032;15.484;2022-07-23T04:47:31;12.90;;;10.82;;
41468;SDS011;27206;47.032;15.484;2022-07-23T04:49:56;14.43;;;10.73;;
41468;SDS011;27206;47.032;15.484;2022-07-23T04:52:22;13.75;;;10.20;;
41468;SDS011;27206;47.032;15.484;2022-07-23T04:54:48;12.93;;;10.98;;
41468;SDS011;27206;47.032;15.484;2022-07-23T04:57:14;14.50;;;10.82;;
41468;SDS011;27206;47.032;15.484;2022-07-23T04:59:40;13.60;;;10.60;;
41468;SDS011;27206;47.032;15.484;2022-07-23T05:02:06;15.10;;;10.70;;
41468;SDS011;27206;47.032;15.484;2022-07-23T05:04:32;14.00;;;10.85;;
41468;SDS011;27206;47.032;15.484;2022-07-23T05:06:58;12.65;;;10.40;;
41468;SDS011;27206;47.032;15.484;2022-07-23T05:09:24;13.35;;;11.45;;
41468;SDS011;27206;47.032;15.484;2022-07-23T05:11:50;12.98;;;10.55;;
41468;SDS011;27206;47.032;15.484;2022-07-23T05:14:16;13.07;;;10.63;;
41468;SDS011;27206;47.032;15.484;2022-07-23T05:16:42;15.38;;;10.15;;
41468;SDS011;27206;47.032;15.484;2022-07-23T05:19:07;12.40;;;10.18;;
41468;SDS011;27206;47.032;15.484;2022-07-23T05:21:33;14.48;;;10.65;;
41468;SDS011;27206;47.032;15.484;2022-07-23T05:23:59;13.82;;;10.75;;
41468;SDS011;27206;47.032;15.484;2022-07-23T05:26:25;13.57;;;10.68;;
41468;SDS011;27206;47.032;15.484;2022-07-23T05:28:50;15.55;;;11.55;;
41468;SDS011;27206;47.032;15.484;2022-07-23T05:31:16;15.32;;;10.80;;
41468;SDS011;27206;47.032;15.484;2022-07-23T05:33:43;12.80;;;10.93;;
41468;SDS011;27206;47.032;15.484;2022-07-23T05:36:09;14.68;;;11.45;;
41468;SDS011;27206;47.032;15.484;2022-07-23T05:38:35;13.45;;;11.02;;
41468;SDS011;27206;47.032;15.484;2022-07-23T05:41:01;12.60;;;10.63;;
41468;SDS011;27206;47.032;15.484;2022-07-23T05:43:26;13.27;;;11.88;;
41468;SDS011;27206;47.032;15.484;2022-07-23T05:45:52;13.30;;;11.15;;
41468;SDS011;27206;47.032;15.484;2022-07-23T05:48:18;13.68;;;11.38;;
41468;SDS011;27206;47.032;15.484;2022-07-23T05:50:44;15.43;;;10.93;;
41468;SDS011;27206;47.032;15.484;2022-07-23T05:53:11;14.02;;;10.60;;
41468;SDS011;27206;47.032;15.484;2022-07-23T05:55:37;12.73;;;10.80;;
41468;SDS011;27206;47.032;15.484;2022-07-23T05:58:02;14.00;;;10.90;;
41468;SDS011;27206;47.032;15.484;2022-07-23T06:00:28;13.82;;;11.13;;
41468;SDS011;27206;47.032;15.484;2022-07-23T06:02:54;13.48;;;10.98;;
41468;SDS011;27206;47.032;15.484;2022-07-23T06:05:20;12.18;;;10.52;;
41468;SDS011;27206;47.032;15.484;2022-07-23T06:07:45;12.90;;;10.95;;
41468;SDS011;27206;47.032;15.484;2022-07-23T06:10:11;12.43;;;10.50;;
41468;SDS011;27206;47.032;15.484;2022-07-23T06:12:37;15.70;;;11.15;;
41468;SDS011;27206;47.032;15.484;2022-07-23T06:15:03;13.57;;;10.82;;
41468;SDS011;27206;47.032;15.484;2022-07-23T06:17:29;15.10;;;11.60;;
41468;SDS011;27206;47.032;15.484;2022-07-23T06:19:54;16.50;;;11.60;;
41468;SDS011;27206;47.032;15.484;2022-07-23T06:22:20;12.85;;;10.88;;
41468;SDS011;27206;47.032;15.484;2022-07-23T06:24:47;12.63;;;11.32;;
41468;SDS011;27206;47.032;15.484;2022-07-23T06:27:13;13.77;;;11.05;;
41468;SDS011;27206;47.032;15.484;2022-07-23T06:29:39;13.93;;;11.73;;
41468;SDS011;27206;47.032;15.484;2022-07-23T06:32:05;12.48;;;10.57;;
41468;SDS011;27206;47.032;15.484;2022-07-23T06:34:32;13.23;;;10.93;;
41468;SDS011;27206;47.032;15.484;2022-07-23T06:36:58;13.35;;;11.25;;
41468;SDS011;27206;47.032;15.484;2022-07-23T06:39:24;13.88;;;11.43;;
41468;SDS011;27206;47.032;15.484;2022-07-23T06:41:49;13.45;;;11.05;;
41468;SDS011;27206;47.032;15.484;2022-07-23T06:44:15;14.23;;;10.82;;
41468;SDS011;27206;47.032;15.484;2022-07-23T06:46:41;13.13;;;11.30;;
41468;SDS011;27206;47.032;15.484;2022-07-23T06:49:07;15.55;;;10.93;;
41468;SDS011;27206;47.032;15.484;2022-07-23T06:51:32;13.40;;;11.10;;
41468;SDS011;27206;47.032;15.484;2022-07-23T06:53:58;14.55;;;10.73;;
41468;SDS011;27206;47.032;15.484;2022-07-23T06:56:25;12.85;;;9.95;;
41468;SDS011;27206;47.032;15.484;2022-07-23T06:58:50;11.43;;;9.30;;
41468;SDS011;27206;47.032;15.484;2022-07-23T07:01:16;12.52;;;10.70;;
41468;SDS011;27206;47.032;15.484;2022-07-23T07:03:42;13.80;;;10.38;;
41468;SDS011;27206;47.032;15.484;2022-07-23T07:06:07;12.30;;;10.50;;
41468;SDS011;27206;47.032;15.484;2022-07-23T07:08:33;12.40;;;9.77;;
41468;SDS011;27206;47.032;15.484;2022-07-23T07:10:59;11.52;;;9.65;;
41468;SDS011;27206;47.032;15.484;2022-07-23T07:13:25;12.90;;;9.82;;
41468;SDS011;27206;47.032;15.484;2022-07-23T07:15:50;12.20;;;10.02;;
41468;SDS011;27206;47.032;15.484;2022-07-23T07:18:16;11.00;;;8.77;;
41468;SDS011;27206;47.032;15.484;2022-07-23T07:20:42;13.52;;;10.20;;
41468;SDS011;27206;47.032;15.484;2022-07-23T07:23:07;12.23;;;9.55;;
41468;SDS011;27206;47.032;15.484;2022-07-23T07:25:33;13.02;;;9.70;;
41468;SDS011;27206;47.032;15.484;2022-07-23T07:27:59;13.80;;;9.20;;
41468;SDS011;27206;47.032;15.484;2022-07-23T07:30:25;11.70;;;9.80;;
41468;SDS011;27206;47.032;15.484;2022-07-23T07:32:51;11.38;;;9.63;;
41468;SDS011;27206;47.032;15.484;2022-07-23T07:35:16;11.98;;;9.50;;
41468;SDS011;27206;47.032;15.484;2022-07-23T07:37:42;12.32;;;9.48;;
41468;SDS011;27206;47.032;15.484;2022-07-23T07:40:08;15.82;;;9.80;;
41468;SDS011;27206;47.032;15.484;2022-07-23T07:42:34;11.93;;;10.05;;
41468;SDS011;27206;47.032;15.484;2022-07-23T07:44:59;11.68;;;9.13;;
41468;SDS011;27206;47.032;15.484;2022-07-23T07:47:25;12.57;;;10.02;;
41468;SDS011;27206;47.032;15.484;2022-07-23T07:49:53;11.82;;;9.40;;
41468;SDS011;27206;47.032;15.484;2022-07-23T07:52:19;10.88;;;9.27;;
41468;SDS011;27206;47.032;15.484;2022-07-23T07:54:44;11.05;;;9.05;;
41468;SDS011;27206;47.032;15.484;2022-07-23T07:57:10;10.15;;;8.93;;
41468;SDS011;27206;47.032;15.484;2022-07-23T07:59:36;11.25;;;9.00;;
41468;SDS011;27206;47.032;15.484;2022-07-23T08:02:01;12.05;;;9.43;;
41468;SDS011;27206;47.032;15.484;2022-07-23T08:04:27;10.85;;;8.63;;
41468;SDS011;27206;47.032;15.484;2022-07-23T08:06:52;13.30;;;8.68;;
41468;SDS011;27206;47.032;15.484;2022-07-23T08:09:18;10.98;;;8.88;;
41468;SDS011;27206;47.032;15.484;2022-07-23T08:11:44;10.18;;;8.55;;
41468;SDS011;27206;47.032;15.484;2022-07-23T08:14:09;12.40;;;8.73;;
41468;SDS011;27206;47.032;15.484;2022-07-23T08:16:36;12.63;;;9.05;;
41468;SDS011;27206;47.032;15.484;2022-07-23T08:19:02;13.88;;;8.27;;
41468;SDS011;27206;47.032;15.484;2022-07-23T08:21:27;10.85;;;8.10;;
41468;SDS011;27206;47.032;15.484;2022-07-23T08:23:53;12.50;;;8.57;;
41468;SDS011;27206;47.032;15.484;2022-07-23T08:26:18;10.80;;;8.90;;
41468;SDS011;27206;47.032;15.484;2022-07-23T08:28:44;10.30;;;8.65;;
41468;SDS011;27206;47.032;15.484;2022-07-23T08:31:10;9.13;;;7.72;;
41468;SDS011;27206;47.032;15.484;2022-07-23T08:33:36;10.15;;;7.60;;
41468;SDS011;27206;47.032;15.484;2022-07-23T08:36:02;9.95;;;8.52;;
41468;SDS011;27206;47.032;15.484;2022-07-23T08:38:29;10.38;;;8.15;;
41468;SDS011;27206;47.032;15.484;2022-07-23T08:40:55;10.43;;;8.30;;
41468;SDS011;27206;47.032;15.484;2022-07-23T08:43:26;9.15;;;7.95;;
41468;SDS011;27206;47.032;15.484;2022-07-23T08:45:55;10.68;;;8.50;;
41468;SDS011;27206;47.032;15.484;2022-07-23T08:48:25;10.80;;;8.52;;
41468;SDS011;27206;47.032;15.484;2022-07-23T08:50:53;9.55;;;8.35;;
41468;SDS011;27206;47.032;15.484;2022-07-23T08:53:20;13.15;;;8.65;;
41468;SDS011;27206;47.032;15.484;2022-07-23T08:55:48;13.70;;;8.43;;
41468;SDS011;27206;47.032;15.484;2022-07-23T08:58:16;9.68;;;8.20;;
41468;SDS011;27206;47.032;15.484;2022-07-23T09:00:42;14.50;;;8.32;;
41468;SDS011;27206;47.032;15.484;2022-07-23T09:03:21;10.60;;;8.05;;
41468;SDS011;27206;47.032;15.484;2022-07-23T09:05:52;9.20;;;7.82;;
41468;SDS011;27206;47.032;15.484;2022-07-23T09:08:22;10.93;;;8.05;;
41468;SDS011;27206;47.032;15.484;2022-07-23T09:11:11;10.30;;;8.43;;
41468;SDS011;27206;47.032;15.484;2022-07-23T09:13:42;18.63;;;8.63;;
41468;SDS011;27206;47.032;15.484;2022-07-23T09:16:24;17.30;;;8.80;;
41468;SDS011;27206;47.032;15.484;2022-07-23T09:18:54;10.45;;;7.88;;
41468;SDS011;27206;47.032;15.484;2022-07-23T09:23:58;10.93;;;7.75;;
41468;SDS011;27206;47.032;15.484;2022-07-23T09:26:32;10.20;;;7.80;;
41468;SDS011;27206;47.032;15.484;2022-07-23T09:29:17;12.20;;;8.45;;
41468;SDS011;27206;47.032;15.484;2022-07-23T09:36:41;10.17;;;8.30;;
41468;SDS011;27206;47.032;15.484;2022-07-23T09:39:07;10.85;;;8.07;;
41468;SDS011;27206;47.032;15.484;2022-07-23T09:41:38;7.85;;;7.05;;
41468;SDS011;27206;47.032;15.484;2022-07-23T09:44:09;9.13;;;7.13;;
41468;SDS011;27206;47.032;15.484;2022-07-23T09:46:37;9.25;;;7.50;;
41468;SDS011;27206;47.032;15.484;2022-07-23T09:49:15;10.25;;;7.18;;
41468;SDS011;27206;47.032;15.484;2022-07-23T09:51:52;10.40;;;7.43;;
41468;SDS011;27206;47.032;15.484;2022-07-23T09:54:36;8.15;;;7.35;;
41468;SDS011;27206;47.032;15.484;2022-07-23T09:57:07;10.60;;;7.13;;
41468;SDS011;27206;47.032;15.484;2022-07-23T09:59:38;7.75;;;6.95;;
41468;SDS011;27206;47.032;15.484;2022-07-23T10:02:05;9.27;;;6.55;;
41468;SDS011;27206;47.032;15.484;2022-07-23T10:04:33;8.05;;;6.88;;
41468;SDS011;27206;47.032;15.484;2022-07-23T10:07:00;7.53;;;6.07;;
41468;SDS011;27206;47.032;15.484;2022-07-23T10:09:29;6.95;;;6.25;;
41468;SDS011;27206;47.032;15.484;2022-07-23T10:11:59;10.27;;;7.13;;
41468;SDS011;27206;47.032;15.484;2022-07-23T10:14:50;9.15;;;6.95;;
41468;SDS011;27206;47.032;15.484;2022-07-23T10:17:16;9.93;;;6.60;;
41468;SDS011;27206;47.032;15.484;2022-07-23T10:19:43;8.40;;;5.88;;
41468;SDS011;27206;47.032;15.484;2022-07-23T10:24:53;9.63;;;6.75;;
41468;SDS011;27206;47.032;15.484;2022-07-23T10:36:08;8.95;;;6.18;;
41468;SDS011;27206;47.032;15.484;2022-07-23T10:38:52;7.82;;;5.63;;
41468;SDS011;27206;47.032;15.484;2022-07-23T10:41:33;7.32;;;6.20;;
41468;SDS011;27206;47.032;15.484;2022-07-23T10:44:09;7.05;;;5.65;;
41468;SDS011;27206;47.032;15.484;2022-07-23T10:46:35;8.65;;;6.50;;
41468;SDS011;27206;47.032;15.484;2022-07-23T10:49:24;7.82;;;6.85;;
41468;SDS011;27206;47.032;15.484;2022-07-23T10:54:45;8.45;;;6.65;;
41468;SDS011;27206;47.032;15.484;2022-07-23T10:57:16;7.28;;;6.47;;
41468;SDS011;27206;47.032;15.484;2022-07-23T11:02:34;8.10;;;6.35;;
41468;SDS011;27206;47.032;15.484;2022-07-23T11:05:03;10.15;;;6.40;;
41468;SDS011;27206;47.032;15.484;2022-07-23T11:07:34;7.15;;;6.43;;
41468;SDS011;27206;47.032;15.484;2022-07-23T11:10:02;6.80;;;6.15;;
41468;SDS011;27206;47.032;15.484;2022-07-23T11:17:33;7.97;;;6.60;;
41468;SDS011;27206;47.032;15.484;2022-07-23T11:20:23;8.35;;;6.85;;
41468;SDS011;27206;47.032;15.484;2022-07-23T11:22:50;8.13;;;6.63;;
41468;SDS011;27206;47.032;15.484;2022-07-23T11:27:53;12.13;;;6.70;;
41468;SDS011;27206;47.032;15.484;2022-07-23T11:32:54;7.50;;;6.53;;
41468;SDS011;27206;47.032;15.484;2022-07-23T11:35:44;9.70;;;6.25;;
41468;SDS011;27206;47.032;15.484;2022-07-23T11:38:14;10.18;;;6.25;;
41468;SDS011;27206;47.032;15.484;2022-07-23T11:40:45;7.07;;;5.93;;
41468;SDS011;27206;47.032;15.484;2022-07-23T11:43:15;9.10;;;6.30;;
41468;SDS011;27206;47.032;15.484;2022-07-23T11:45:42;6.88;;;6.15;;
41468;SDS011;27206;47.032;15.484;2022-07-23T11:48:17;9.05;;;6.05;;
41468;SDS011;27206;47.032;15.484;2022-07-23T11:50:51;7.18;;;5.80;;
41468;SDS011;27206;47.032;15.484;2022-07-23T11:53:31;10.20;;;6.20;;
41468;SDS011;27206;47.032;15.484;2022-07-23T11:56:05;8.88;;;6.00;;
41468;SDS011;27206;47.032;15.484;2022-07-23T11:58:35;6.80;;;6.10;;
41468;SDS011;27206;47.032;15.484;2022-07-23T12:01:01;7.97;;;6.13;;
41468;SDS011;27206;47.032;15.484;2022-07-23T12:03:29;8.68;;;6.20;;
41468;SDS011;27206;47.032;15.484;2022-07-23T12:05:56;6.60;;;6.00;;
41468;SDS011;27206;47.032;15.484;2022-07-23T12:08:23;7.22;;;6.20;;
41468;SDS011;27206;47.032;15.484;2022-07-23T12:10:52;7.88;;;6.18;;
41468;SDS011;27206;47.032;15.484;2022-07-23T12:13:19;6.75;;;6.05;;
41468;SDS011;27206;47.032;15.484;2022-07-23T12:15:53;6.80;;;5.57;;
41468;SDS011;27206;47.032;15.484;2022-07-23T12:18:23;7.07;;;6.07;;
41468;SDS011;27206;47.032;15.484;2022-07-23T12:20:51;7.07;;;6.00;;
41468;SDS011;27206;47.032;15.484;2022-07-23T12:23:22;8.48;;;6.22;;
41468;SDS011;27206;47.032;15.484;2022-07-23T12:25:52;6.88;;;6.05;;
41468;SDS011;27206;47.032;15.484;2022-07-23T12:28:31;6.63;;;5.70;;
41468;SDS011;27206;47.032;15.484;2022-07-23T12:31:02;7.43;;;6.20;;
41468;SDS011;27206;47.032;15.484;2022-07-23T12:33:32;6.35;;;5.75;;
41468;SDS011;27206;47.032;15.484;2022-07-23T12:36:03;7.30;;;5.85;;
41468;SDS011;27206;47.032;15.484;2022-07-23T12:41:13;9.18;;;6.07;;
41468;SDS011;27206;47.032;15.484;2022-07-23T12:43:40;7.60;;;6.47;;
41468;SDS011;27206;47.032;15.484;2022-07-23T12:46:09;7.10;;;6.40;;
41468;SDS011;27206;47.032;15.484;2022-07-23T12:51:15;6.63;;;5.93;;
41468;SDS011;27206;47.032;15.484;2022-07-23T12:53:46;7.60;;;6.40;;
41468;SDS011;27206;47.032;15.484;2022-07-23T12:58:54;6.30;;;5.70;;
41468;SDS011;27206;47.032;15.484;2022-07-23T13:01:23;8.20;;;5.93;;
41468;SDS011;27206;47.032;15.484;2022-07-23T13:06:37;7.40;;;6.25;;
41468;SDS011;27206;47.032;15.484;2022-07-23T13:09:06;8.35;;;6.25;;
41468;SDS011;27206;47.032;15.484;2022-07-23T13:11:34;7.85;;;6.00;;
41468;SDS011;27206;47.032;15.484;2022-07-23T13:14:00;6.80;;;6.10;;
41468;SDS011;27206;47.032;15.484;2022-07-23T13:16:28;8.40;;;5.90;;
41468;SDS011;27206;47.032;15.484;2022-07-23T13:18:55;7.38;;;5.53;;
41468;SDS011;27206;47.032;15.484;2022-07-23T13:21:22;6.45;;;5.75;;
41468;SDS011;27206;47.032;15.484;2022-07-23T13:23:48;7.05;;;6.00;;
41468;SDS011;27206;47.032;15.484;2022-07-23T13:26:14;5.95;;;5.35;;
41468;SDS011;27206;47.032;15.484;2022-07-23T13:28:40;7.00;;;5.50;;
41468;SDS011;27206;47.032;15.484;2022-07-23T13:31:06;7.47;;;5.22;;
41468;SDS011;27206;47.032;15.484;2022-07-23T13:33:33;6.45;;;5.68;;
41468;SDS011;27206;47.032;15.484;2022-07-23T13:35:59;6.88;;;5.70;;
41468;SDS011;27206;47.032;15.484;2022-07-23T13:38:25;6.50;;;5.70;;
41468;SDS011;27206;47.032;15.484;2022-07-23T13:40:52;6.10;;;5.47;;
41468;SDS011;27206;47.032;15.484;2022-07-23T13:43:19;7.65;;;5.75;;
41468;SDS011;27206;47.032;15.484;2022-07-23T13:45:47;6.97;;;5.25;;
41468;SDS011;27206;47.032;15.484;2022-07-23T13:48:13;8.10;;;5.65;;
41468;SDS011;27206;47.032;15.484;2022-07-23T13:50:40;6.45;;;5.10;;
41468;SDS011;27206;47.032;15.484;2022-07-23T13:53:08;6.25;;;5.47;;
41468;SDS011;27206;47.032;15.484;2022-07-23T13:55:42;6.22;;;5.57;;
41468;SDS011;27206;47.032;15.484;2022-07-23T13:58:08;8.35;;;5.65;;
41468;SDS011;27206;47.032;15.484;2022-07-23T14:00:35;6.13;;;5.53;;
41468;SDS011;27206;47.032;15.484;2022-07-23T14:03:03;12.10;;;5.90;;
41468;SDS011;27206;47.032;15.484;2022-07-23T14:05:28;7.82;;;6.03;;
41468;SDS011;27206;47.032;15.484;2022-07-23T14:07:54;8.07;;;6.43;;
41468;SDS011;27206;47.032;15.484;2022-07-23T14:10:21;7.25;;;5.75;;
41468;SDS011;27206;47.032;15.484;2022-07-23T14:12:48;6.50;;;5.90;;
41468;SDS011;27206;47.032;15.484;2022-07-23T14:15:15;6.82;;;6.10;;
41468;SDS011;27206;47.032;15.484;2022-07-23T14:20:10;7.45;;;6.22;;
41468;SDS011;27206;47.032;15.484;2022-07-23T14:22:36;6.28;;;5.68;;
41468;SDS011;27206;47.032;15.484;2022-07-23T14:25:03;6.25;;;5.20;;
41468;SDS011;27206;47.032;15.484;2022-07-23T14:27:29;8.55;;;5.82;;
41468;SDS011;27206;47.032;15.484;2022-07-23T14:29:55;7.43;;;6.22;;
41468;SDS011;27206;47.032;15.484;2022-07-23T14:32:21;6.43;;;5.60;;
41468;SDS011;27206;47.032;15.484;2022-07-23T14:34:47;6.78;;;5.50;;
41468;SDS011;27206;47.032;15.484;2022-07-23T14:37:13;7.95;;;5.53;;
41468;SDS011;27206;47.032;15.484;2022-07-23T14:39:40;7.50;;;5.53;;
41468;SDS011;27206;47.032;15.484;2022-07-23T14:42:06;6.07;;;5.47;;
41468;SDS011;27206;47.032;15.484;2022-07-23T14:44:32;6.05;;;5.45;;
41468;SDS011;27206;47.032;15.484;2022-07-23T14:46:59;5.85;;;5.20;;
41468;SDS011;27206;47.032;15.484;2022-07-23T14:49:25;5.88;;;5.28;;
41468;SDS011;27206;47.032;15.484;2022-07-23T14:51:51;5.72;;;5.07;;
41468;SDS011;27206;47.032;15.484;2022-07-23T14:54:17;5.75;;;5.15;;
41468;SDS011;27206;47.032;15.484;2022-07-23T14:56:44;8.63;;;5.35;;
41468;SDS011;27206;47.032;15.484;2022-07-23T14:59:10;5.63;;;4.63;;
41468;SDS011;27206;47.032;15.484;2022-07-23T15:01:36;6.40;;;5.18;;
41468;SDS011;27206;47.032;15.484;2022-07-23T15:04:03;7.05;;;5.35;;
41468;SDS011;27206;47.032;15.484;2022-07-23T15:06:29;6.22;;;4.97;;
41468;SDS011;27206;47.032;15.484;2022-07-23T15:08:55;6.13;;;5.10;;
41468;SDS011;27206;47.032;15.484;2022-07-23T15:11:21;7.22;;;5.88;;
41468;SDS011;27206;47.032;15.484;2022-07-23T15:13:46;6.18;;;5.55;;
41468;SDS011;27206;47.032;15.484;2022-07-23T15:16:12;6.32;;;5.50;;